This is the latest recevied weather packets stored in our database for station/object KN6ETB-1. If no packets are shown the sender has not sent any weather packets the latest 1 day(s).
| Time | Temp. | Humidity | Pressure | Rain* | Wind** | Luminosity | Snow |
|---|---|---|---|---|---|---|---|
| 1836274622 | 23.33° C | 73% | 1011.6 hPa | 0 mm | 0.89 m/s, 329° | 0 W/m² | - |
| 1836274475 | 22.78° C | 74% | 1011.7 hPa | 0 mm | 0.89 m/s, 315° | 0 W/m² | - |
| 1836274320 | 23.33° C | 72% | 1011.4 hPa | 0 mm | 0.45 m/s, 300° | 0 W/m² | - |
| 1836274174 | 22.78° C | 73% | 1011.6 hPa | 0 mm | 0.45 m/s, 316° | 0 W/m² | - |
| 1836274019 | 23.33° C | 72% | 1011.3 hPa | 0 mm | 0.45 m/s, 308° | 0 W/m² | - |
| 1778043164 | 15° C | 78% | 1014 hPa | 0 mm | 2.24 m/s, 184° | 0 W/m² | - |
| 1778042861 | 15° C | 78% | 1013.8 hPa | 0 mm | 0.89 m/s, 182° | 0 W/m² | - |
| 1778042558 | 15° C | 79% | 1013.9 hPa | 0 mm | 0.89 m/s, 202° | 0 W/m² | - |
| 1778042256 | 15° C | 79% | 1013.8 hPa | 0 mm | 1.34 m/s, 168° | 0 W/m² | - |
| 1778041953 | 15° C | 79% | 1013.8 hPa | 0 mm | 1.34 m/s, 202° | 0 W/m² | - |
| 1778041652 | 15° C | 79% | 1013.7 hPa | 0 mm | 1.79 m/s, 210° | 0 W/m² | - |
| 1778041353 | 15.56° C | 78% | 1013.7 hPa | 0 mm | 1.79 m/s, 176° | 0 W/m² | - |
| 1778041048 | 15.56° C | 77% | 1013.7 hPa | 0 mm | 2.24 m/s, 193° | 0 W/m² | - |
| 1778040745 | 15.56° C | 77% | 1013.8 hPa | 0 mm | 1.34 m/s, 216° | 0 W/m² | - |
| 1778040442 | 15.56° C | 77% | 1013.8 hPa | 0 mm | 2.68 m/s, 208° | 0 W/m² | - |
| 1778040139 | 15.56° C | 77% | 1013.7 hPa | 0 mm | 1.79 m/s, 200° | 0 W/m² | - |
| 1778039835 | 15.56° C | 77% | 1013.6 hPa | 0 mm | 1.79 m/s, 225° | 0 W/m² | - |
| 1778039533 | 15.56° C | 77% | 1013.7 hPa | 0 mm | 2.24 m/s, 239° | 0 W/m² | - |
| 1778039229 | 15.56° C | 77% | 1013.4 hPa | 0 mm | 1.34 m/s, 204° | 0 W/m² | - |
| 1778038927 | 15.56° C | 77% | 1013.4 hPa | 0 mm | 1.34 m/s, 192° | 0 W/m² | - |
| 1778038624 | 15.56° C | 77% | 1013.7 hPa | 0 mm | 2.24 m/s, 222° | 0 W/m² | - |
| 1778038321 | 15.56° C | 76% | 1013.3 hPa | 0 mm | 3.13 m/s, 247° | 0 W/m² | - |
| 1778038018 | 16.11° C | 76% | 1013.2 hPa | 0 mm | 2.24 m/s, 199° | 0 W/m² | - |
| 1778037715 | 16.11° C | 76% | 1013 hPa | 0 mm | 1.79 m/s, 208° | 0 W/m² | - |
| 1778037411 | 16.11° C | 76% | 1013 hPa | 0 mm | 1.79 m/s, 204° | 0 W/m² | - |
* Rain latest hour (hover to see other rain measurements)
** Current wind speed in m/s (hover to see current wind gust speed)